Kevil, Kentucky
Current Conditions -  °F | °C
As of 12:53 AM on Saturday 20 Dec 2014 (Local Time) from KPAH Reporting Station
Overcast Overcast  
Wind Chill: 30°   Ceiling: 6000
Heat Index: 35°   Visibility: 9mi
Dew Point: 28°   Wind: 6mph
Humidity: 76%   Direction: 40°NE
Pressure: 30.25"   Gusts: NA
Location:  37.09°N, 88.89°W
Report Text: KPAH 200653Z AUTO 04005KT 9SM OVC060 02/M02 A3025 RMK AO2 SLP246 T00171022
Loading
Personal Weather Stations






























Interactive Weather Map New forecast layout! Learn more

10-Day Weather Forecast

Advertisements
Track Severe Weather on mobile